Choptank — WDG4555 — position and weather

sailwx.info

Track history (hours):
 
Tides and Currents Weather Stations Pressure Air Temp Water Temp Dewpoint Dewpoint Depression Visibility Wind Speed Wind Dir Waves Ship Positions

Choptank

Owner: Vane Line Bunkering, Philadelphia, PA. More information available from US FCC via Universal Licensing System and Coast Guard Vessel Documentation Center.

Last reported at 2018-Apr-22 00:50 UTC. Time now 2018-Apr-26 11:38 UTC.
Position N 17°48' W 063°27'.

Length 33 m; draft 4.1 m.

Type: Tow > 200 m length. MMSI: 367147860.

Date/timePositionNaut miles runAvg speedWind from/ knotsBaromVisibWave heightAir tempDewpointWater temp
2018-Apr-22 00:50N 17°48' W 063°27'2 6.8
2018-Apr-22 00:30N 17°47' W 063°25'3 6.8
2018-Apr-22 00:00N 17°45' W 063°21'4 6.2
2018-Apr-21 23:22N 17°44' W 063°18'5 6.3
2018-Apr-21 22:38N 17°42' W 063°13'2 6.4
2018-Apr-21 22:22N 17°41' W 063°12'2 6.6
2018-Apr-21 22:00N 17°40' W 063°09'4 6.9
2018-Apr-21 21:27N 17°39' W 063°06'43 7.1
2018-Apr-21 15:22N 17°21' W 062°24'3 8.0
2018-Apr-21 15:00N 17°20' W 062°21'4 7.8
2018-Apr-21 14:30N 17°18' W 062°18'4 7.9
2018-Apr-21 14:00N 17°17' W 062°14'4 8.0
2018-Apr-21 13:30N 17°15' W 062°10'4 8.0
2018-Apr-21 13:00N 17°14' W 062°06'4 7.8
2018-Apr-21 12:30N 17°12' W 062°02'4 7.8
2018-Apr-21 12:00N 17°10' W 061°59'4 7.8
2018-Apr-21 11:30N 17°09' W 061°55'2 4.4
2018-Apr-21 11:00N 17°08' W 061°53'1 2.7
2018-Apr-21 10:30N 17°08' W 061°51'0 0.0
2018-Apr-21 10:01N 17°08' W 061°51'0 0.0
2018-Apr-21 09:28N 17°08' W 061°51'0 0.0
2018-Apr-21 08:58N 17°08' W 061°51'0 0.0
2018-Apr-21 08:29N 17°08' W 061°51'0 0.0
2018-Apr-21 07:59N 17°08' W 061°51'0 0.0
2018-Apr-21 07:29N 17°08' W 061°51'0 0.0
2018-Apr-21 07:00N 17°08' W 061°51'0 0.0
2018-Apr-21 06:30N 17°08' W 061°51'0 0.0
2018-Apr-21 06:00N 17°08' W 061°51'0 0.0
2018-Apr-21 05:28N 17°08' W 061°51'0 0.0
2018-Apr-21 04:58N 17°08' W 061°51'0 0.0
2018-Apr-21 04:28N 17°08' W 061°51'0 0.0
2018-Apr-21 03:59N 17°08' W 061°51'0 0.0
2018-Apr-21 03:29N 17°08' W 061°51'0 0.0
2018-Apr-21 02:59N 17°08' W 061°51'0 0.0
2018-Apr-21 02:30N 17°08' W 061°51'0 0.0
2018-Apr-21 02:00N 17°08' W 061°51'0 0.0
2018-Apr-21 01:30N 17°08' W 061°51'0 0.0
2018-Apr-21 00:58N 17°08' W 061°51'0 0.0
2018-Apr-21 00:28N 17°08' W 061°51'0 0.0
2018-Apr-20 23:58N 17°08' W 061°51'0 0.0
2018-Apr-20 23:29N 17°08' W 061°51'0 0.0
2018-Apr-20 22:59N 17°08' W 061°51'0 0.0
2018-Apr-20 22:29N 17°08' W 061°51'0 0.0
2018-Apr-20 21:57N 17°08' W 061°51'0 0.1
2018-Apr-20 21:30N 17°08' W 061°51'0 0.0
2018-Apr-20 21:00N 17°08' W 061°51'0 0.0
2018-Apr-20 20:28N 17°08' W 061°51'0 0.0
2018-Apr-20 19:58N 17°08' W 061°51'0 0.0
2018-Apr-20 19:28N 17°08' W 061°51'0 0.0
2018-Apr-20 18:59N 17°08' W 061°51'0 0.0
2018-Apr-20 18:29N 17°08' W 061°51'0 0.0
2018-Apr-20 17:59N 17°08' W 061°51'0 0.0
2018-Apr-20 17:30N 17°08' W 061°51'0 0.0
2018-Apr-20 17:00N 17°08' W 061°51'0 0.0
2018-Apr-20 16:30N 17°08' W 061°51'0 0.0
2018-Apr-20 15:58N 17°08' W 061°51'0 0.0
2018-Apr-20 15:28N 17°08' W 061°51'0 0.0
2018-Apr-20 14:58N 17°08' W 061°51'0 0.0
2018-Apr-20 14:29N 17°08' W 061°51'0 0.0
2018-Apr-20 13:59N 17°08' W 061°51'0 0.0
2018-Apr-20 13:29N 17°08' W 061°51'0 0.0
2018-Apr-20 12:57N 17°08' W 061°51'0 0.0
2018-Apr-20 12:30N 17°08' W 061°51'0 0.0
2018-Apr-20 12:00N 17°08' W 061°51'0 0.0
2018-Apr-20 11:28N 17°08' W 061°51'0 0.0
2018-Apr-20 10:58N 17°08' W 061°51'0 0.0
2018-Apr-20 10:28N 17°08' W 061°51'0 0.0
2018-Apr-20 09:56N 17°08' W 061°51'0 0.0
2018-Apr-20 09:29N 17°08' W 061°51'0 0.0
2018-Apr-20 08:59N 17°08' W 061°51'0 0.0
2018-Apr-20 08:30N 17°08' W 061°51'0 0.0
2018-Apr-20 08:00N 17°08' W 061°51'0 0.0
2018-Apr-20 07:30N 17°08' W 061°51'0 0.0
2018-Apr-20 06:58N 17°08' W 061°51'0 0.0
2018-Apr-20 06:28N 17°08' W 061°51'0 0.0
2018-Apr-20 05:58N 17°08' W 061°51'0 0.0
2018-Apr-20 05:29N 17°08' W 061°51'0 0.0
2018-Apr-20 04:59N 17°08' W 061°51'0 0.0
2018-Apr-20 04:29N 17°08' W 061°51'0 0.0
2018-Apr-20 04:00N 17°08' W 061°51'0 0.0
2018-Apr-20 03:30N 17°08' W 061°51'0 0.0
2018-Apr-20 03:00N 17°08' W 061°51'0 0.0
2018-Apr-20 02:28N 17°08' W 061°51'0 0.0
2018-Apr-20 01:58N 17°08' W 061°51'0 0.0
2018-Apr-20 01:28N 17°08' W 061°51'0 0.0
2018-Apr-20 00:59N 17°08' W 061°51'0 0.0
2018-Apr-20 00:29N 17°08' W 061°51'0 0.0
2018-Apr-19 23:59N 17°08' W 061°51'0 0.0
2018-Apr-19 23:30N 17°08' W 061°51'0 0.0
2018-Apr-19 23:00N 17°08' W 061°51'0 0.0
2018-Apr-19 22:30N 17°08' W 061°51'0 0.5
2018-Apr-19 22:00N 17°07' W 061°51'0 0.5
2018-Apr-19 21:28N 17°08' W 061°51'0 0.0
2018-Apr-19 20:59N 17°08' W 061°51'0 0.0
2018-Apr-19 20:29N 17°08' W 061°51'0 0.4
2018-Apr-19 19:58N 17°07' W 061°51'0 0.0
2018-Apr-19 19:29N 17°07' W 061°51'0 0.0
2018-Apr-19 18:59N 17°07' W 061°51'0 0.0
2018-Apr-19 18:29N 17°07' W 061°51'0 0.0
2018-Apr-19 18:00N 17°07' W 061°51'0 0.0
2018-Apr-19 17:30N 17°07' W 061°51'0 0.0
2018-Apr-19 17:00N 17°07' W 061°51'0 0.0
2018-Apr-19 16:28N 17°07' W 061°51'0 0.0
2018-Apr-19 15:58N 17°07' W 061°51'0 0.0
2018-Apr-19 15:28N 17°07' W 061°51'0 0.0
2018-Apr-19 15:00N 17°07' W 061°51'0 0.4
2018-Apr-19 14:30N 17°08' W 061°51'0 0.0
2018-Apr-19 13:55N 17°08' W 061°51'0 0.0
2018-Apr-19 13:28N 17°08' W 061°51'0 0.0
2018-Apr-19 12:58N 17°08' W 061°51'0 0.0
2018-Apr-19 12:29N 17°08' W 061°51'0 0.0
2018-Apr-19 11:59N 17°08' W 061°51'0 0.0
2018-Apr-19 11:30N 17°08' W 061°51'0 0.0
2018-Apr-19 11:00N 17°08' W 061°51'0 0.0
2018-Apr-19 10:27N 17°08' W 061°51'0 0.0
2018-Apr-19 09:58N 17°08' W 061°51'0 0.0
2018-Apr-19 09:28N 17°08' W 061°51'0 0.0
2018-Apr-19 08:58N 17°08' W 061°51'0 0.0
2018-Apr-19 08:29N 17°08' W 061°51'0 0.0
2018-Apr-19 07:59N 17°08' W 061°51'0 0.0
2018-Apr-19 07:29N 17°08' W 061°51'0 0.0
2018-Apr-19 07:00N 17°08' W 061°51'0 0.0
2018-Apr-19 06:30N 17°08' W 061°51'0 0.0
2018-Apr-19 06:00N 17°08' W 061°51'0 0.0
2018-Apr-19 05:28N 17°08' W 061°51'0 0.0
2018-Apr-19 04:58N 17°08' W 061°51'0 0.0
2018-Apr-19 04:28N 17°08' W 061°51'0 0.0
2018-Apr-19 03:59N 17°08' W 061°51'0 0.0
2018-Apr-19 03:29N 17°08' W 061°51'0 0.0
2018-Apr-19 02:59N 17°08' W 061°51'0 0.0
2018-Apr-19 02:30N 17°08' W 061°51'0 0.0
2018-Apr-19 02:00N 17°08' W 061°51'0 0.0
2018-Apr-19 01:30N 17°08' W 061°51'0 0.0
2018-Apr-19 00:58N 17°08' W 061°51'0 0.0
2018-Apr-19 00:28N 17°08' W 061°51'0 0.0
2018-Apr-18 23:58N 17°08' W 061°51'0 0.0
2018-Apr-18 23:29N 17°08' W 061°51'0 0.0
2018-Apr-18 22:59N 17°08' W 061°51'0 0.0
2018-Apr-18 22:29N 17°08' W 061°51'0 0.0
2018-Apr-18 22:00N 17°08' W 061°51'0 0.0
2018-Apr-18 21:30N 17°08' W 061°51'0 0.0
2018-Apr-18 21:00N 17°08' W 061°51'0 0.0
2018-Apr-18 20:28N 17°08' W 061°51'0 0.0
2018-Apr-18 19:58N 17°08' W 061°51'0 0.0
2018-Apr-18 19:28N 17°08' W 061°51'0 0.0
2018-Apr-18 18:59N 17°08' W 061°51'0 0.0
2018-Apr-18 18:29N 17°08' W 061°51'0 0.0
2018-Apr-18 17:59N 17°08' W 061°51'0 0.0
2018-Apr-18 17:30N 17°08' W 061°51'0 0.0
2018-Apr-18 17:00N 17°08' W 061°51'0 0.0
2018-Apr-18 16:30N 17°08' W 061°51'0 0.0
2018-Apr-18 15:58N 17°08' W 061°51'0 0.0
2018-Apr-18 15:28N 17°08' W 061°51'0 0.0
2018-Apr-18 14:58N 17°08' W 061°51'0 0.0
2018-Apr-18 14:29N 17°08' W 061°51'0 0.0
2018-Apr-18 13:59N 17°08' W 061°51'0 0.0
2018-Apr-18 13:29N 17°08' W 061°51'0 0.0
2018-Apr-18 13:00N 17°08' W 061°51'0 0.0
2018-Apr-18 12:30N 17°08' W 061°51'0 0.0
2018-Apr-18 12:00N 17°08' W 061°51'0 0.0
2018-Apr-18 11:28N 17°08' W 061°51'0 0.0
2018-Apr-18 10:58N 17°08' W 061°51'0 0.0
2018-Apr-18 10:25N 17°08' W 061°51'0 0.0
2018-Apr-18 09:59N 17°08' W 061°51'0 0.0
2018-Apr-18 09:29N 17°08' W 061°51'0 0.0
2018-Apr-18 08:59N 17°08' W 061°51'0 0.0
2018-Apr-18 08:30N 17°08' W 061°51'0 0.0
2018-Apr-18 08:00N 17°08' W 061°51'0 0.0
2018-Apr-18 07:30N 17°08' W 061°51'0 0.0
2018-Apr-18 06:58N 17°08' W 061°51'0 0.0
2018-Apr-18 06:28N 17°08' W 061°51'0 0.0
2018-Apr-18 05:58N 17°08' W 061°51'0 0.0
2018-Apr-18 05:29N 17°08' W 061°51'0 0.0
2018-Apr-18 04:56N 17°08' W 061°51'0 0.0
2018-Apr-18 04:29N 17°08' W 061°51'0 0.0
2018-Apr-18 04:00N 17°08' W 061°51'0 0.0
2018-Apr-18 03:30N 17°08' W 061°51'0 0.0
2018-Apr-18 03:00N 17°08' W 061°51'0 0.0
2018-Apr-18 02:28N 17°08' W 061°51'0 0.0
2018-Apr-18 01:58N 17°08' W 061°51'0 0.0
2018-Apr-18 01:28N 17°08' W 061°51'0 0.0
2018-Apr-18 00:56N 17°08' W 061°51'0 0.0
2018-Apr-18 00:29N 17°08' W 061°51'0 0.0
2018-Apr-17 23:59N 17°08' W 061°51'0 0.0
2018-Apr-17 23:27N 17°08' W 061°51'0 0.0
2018-Apr-17 23:00N 17°08' W 061°51'0 0.0
2018-Apr-17 22:27N 17°08' W 061°51'0 0.0
2018-Apr-17 21:58N 17°08' W 061°51'0 0.0
2018-Apr-17 21:28N 17°08' W 061°51'0 0.0
2018-Apr-17 20:58N 17°08' W 061°51'0 0.0
2018-Apr-17 20:29N 17°08' W 061°51'0 0.0
2018-Apr-17 19:59N 17°08' W 061°51'0 0.0
2018-Apr-17 19:29N 17°08' W 061°51'0 0.0
2018-Apr-17 19:00N 17°08' W 061°51'0 0.0
2018-Apr-17 18:30N 17°08' W 061°51'0 0.0
2018-Apr-17 18:00N 17°08' W 061°51'0 0.0
2018-Apr-17 17:28N 17°08' W 061°51'0 0.0
2018-Apr-17 16:58N 17°08' W 061°51'0 0.2
2018-Apr-17 16:31N 17°08' W 061°52'1 2.8
2018-Apr-17 15:59N 17°08' W 061°53'0 0.0
2018-Apr-17 15:29N 17°08' W 061°53'0 0.0
2018-Apr-17 14:59N 17°08' W 061°53'0 0.1
2018-Apr-17 14:30N 17°08' W 061°53'0 0.2
2018-Apr-17 14:00N 17°08' W 061°53'0 0.0
2018-Apr-17 13:30N 17°08' W 061°53'0 0.0
2018-Apr-17 12:58N 17°08' W 061°53'1 2.9
2018-Apr-17 12:30N 17°08' W 061°52'0 0.5
2018-Apr-17 11:58N 17°08' W 061°51'0 0.1
2018-Apr-17 11:30N 17°08' W 061°51'0 0.0
2018-Apr-17 11:00N 17°08' W 061°51'0 0.0
2018-Apr-17 10:28N 17°08' W 061°51'0 0.0
2018-Apr-17 09:58N 17°08' W 061°51'0 0.0
2018-Apr-17 09:28N 17°08' W 061°51'0 0.0
2018-Apr-17 08:59N 17°07' W 061°51'0 0.0
2018-Apr-17 08:29N 17°07' W 061°51'0 0.0
2018-Apr-17 07:59N 17°08' W 061°51'0 0.0
2018-Apr-17 07:30N 17°08' W 061°51'0 0.0
2018-Apr-17 07:00N 17°08' W 061°51'0 0.0
2018-Apr-17 06:30N 17°08' W 061°51'0 0.0
2018-Apr-17 05:58N 17°08' W 061°51'0 0.0
2018-Apr-17 05:28N 17°07' W 061°51'0 0.0
2018-Apr-17 04:58N 17°08' W 061°51'0 0.0
2018-Apr-17 04:26N 17°08' W 061°51'0 0.0
2018-Apr-17 03:59N 17°08' W 061°51'0 0.0
2018-Apr-17 03:29N 17°08' W 061°51'0 0.0
2018-Apr-17 02:57N 17°08' W 061°51'0 0.0
2018-Apr-17 02:30N 17°08' W 061°51'0 0.0
2018-Apr-17 01:57N 17°08' W 061°51'0 0.0
2018-Apr-17 01:28N 17°08' W 061°51'0 0.0
2018-Apr-17 00:58N 17°08' W 061°51'0 0.3
2018-Apr-17 00:30N 17°07' W 061°51'0 0.2
2018-Apr-16 23:59N 17°08' W 061°51'0 0.0
2018-Apr-16 23:29N 17°08' W 061°51'0 0.0
2018-Apr-16 22:59N 17°08' W 061°51'0 0.0
2018-Apr-16 22:30N 17°08' W 061°51'0 0.0
2018-Apr-16 22:00N 17°08' W 061°51'0 0.0
2018-Apr-16 21:30N 17°08' W 061°51'0 0.0
2018-Apr-16 20:58N 17°08' W 061°51'0 0.0
2018-Apr-16 20:28N 17°08' W 061°51'0 0.0
2018-Apr-16 19:58N 17°08' W 061°51'0 0.0
2018-Apr-16 19:29N 17°08' W 061°51'0 0.0
2018-Apr-16 18:59N 17°08' W 061°51'0 0.0
2018-Apr-16 18:29N 17°08' W 061°51'0 0.0
2018-Apr-16 18:00N 17°08' W 061°51'0 0.0
2018-Apr-16 17:30N 17°08' W 061°51'0 0.0
2018-Apr-16 17:00N 17°08' W 061°51'0 0.0
2018-Apr-16 16:28N 17°08' W 061°51'0 0.0
2018-Apr-16 15:55N 17°08' W 061°51'1 1.4
2018-Apr-16 15:30N 17°07' W 061°51'0 0.1
2018-Apr-16 15:00N 17°07' W 061°51'0 0.0
2018-Apr-16 14:30N 17°07' W 061°51'0 0.0
2018-Apr-16 13:58N 17°07' W 061°51'0 0.0
2018-Apr-16 13:28N 17°07' W 061°51'0 0.0
2018-Apr-16 12:58N 17°07' W 061°51'0 0.0
2018-Apr-16 12:29N 17°07' W 061°51'0 0.0
2018-Apr-16 11:59N 17°07' W 061°51'0 0.0
2018-Apr-16 11:29N 17°07' W 061°51'0 0.0
2018-Apr-16 11:00N 17°07' W 061°51'0 0.0
2018-Apr-16 10:30N 17°07' W 061°51'0 0.0
2018-Apr-16 10:00N 17°07' W 061°51'0 0.0
2018-Apr-16 09:28N 17°07' W 061°51'0 0.0
2018-Apr-16 08:58N 17°07' W 061°51'0 0.0
2018-Apr-16 08:28N 17°07' W 061°51'0 0.0
2018-Apr-16 07:59N 17°07' W 061°51'0 0.0
2018-Apr-16 07:29N 17°07' W 061°51'0 0.0
2018-Apr-16 06:59N 17°07' W 061°51'0 0.0
2018-Apr-16 06:30N 17°07' W 061°51'0 0.0
2018-Apr-16 06:00N 17°07' W 061°51'0 0.0
2018-Apr-16 05:30N 17°07' W 061°51'0 0.0
2018-Apr-16 04:58N 17°07' W 061°51'0 0.0
2018-Apr-16 04:28N 17°07' W 061°51'0 0.0
2018-Apr-16 03:58N 17°07' W 061°51'0 0.0
2018-Apr-16 03:29N 17°07' W 061°51'0 0.0
2018-Apr-16 02:59N 17°07' W 061°51'0 0.0
2018-Apr-16 02:29N 17°07' W 061°51'0 0.0
2018-Apr-16 01:57N 17°07' W 061°51'0 0.0
2018-Apr-16 01:30N 17°07' W 061°51'0 0.0
2018-Apr-16 01:00N 17°07' W 061°51'0 0.0
2018-Apr-16 00:28N 17°07' W 061°51'0 0.0
2018-Apr-15 23:58N 17°07' W 061°51'0 0.0
2018-Apr-15 23:28N 17°07' W 061°51'0 0.0
2018-Apr-15 22:59N 17°07' W 061°51'0 0.0
2018-Apr-15 22:29N 17°07' W 061°51'0 0.0
2018-Apr-15 21:59N 17°07' W 061°51'0 0.0
2018-Apr-15 21:30N 17°07' W 061°51'0 0.0
2018-Apr-15 21:00N 17°07' W 061°51'0 0.0
2018-Apr-15 20:30N 17°07' W 061°51'0 0.0
2018-Apr-15 19:58N 17°07' W 061°51'0 0.0
2018-Apr-15 19:28N 17°07' W 061°51'0 0.0
2018-Apr-15 18:55N 17°07' W 061°51'0 0.0
2018-Apr-15 18:29N 17°07' W 061°51'0 0.0
2018-Apr-15 17:59N 17°07' W 061°51'0 0.0
2018-Apr-15 17:29N 17°07' W 061°51'0 0.0
2018-Apr-15 17:00N 17°07' W 061°51'0 0.0
2018-Apr-15 16:30N 17°07' W 061°51'0 0.0
2018-Apr-15 15:57N 17°07' W 061°51'0 0.0
2018-Apr-15 15:28N 17°07' W 061°51'0 0.0
2018-Apr-15 14:58N 17°07' W 061°51'0 0.0
2018-Apr-15 14:28N 17°07' W 061°51'0 0.0
2018-Apr-15 13:59N 17°07' W 061°51'0 0.0
2018-Apr-15 13:29N 17°07' W 061°51'0 0.0
2018-Apr-15 12:59N 17°07' W 061°51'0 0.0
2018-Apr-15 12:30N 17°07' W 061°51'0 0.0
2018-Apr-15 12:00N 17°07' W 061°51'0 0.0
2018-Apr-15 11:30N 17°07' W 061°51'0 0.0
2018-Apr-15 10:58N 17°07' W 061°51'0 0.0
2018-Apr-15 10:28N 17°07' W 061°51'0 0.0
2018-Apr-15 09:58N 17°07' W 061°51'0 0.0
2018-Apr-15 09:29N 17°07' W 061°51'0 0.0
2018-Apr-15 08:59N 17°07' W 061°51'0 0.0
2018-Apr-15 08:29N 17°07' W 061°51'0 0.0
2018-Apr-15 08:00N 17°07' W 061°51'0 0.0
2018-Apr-15 07:30N 17°07' W 061°51'0 0.0
2018-Apr-15 07:00N 17°07' W 061°51'0 0.0
2018-Apr-15 06:28N 17°07' W 061°51'0 0.0
2018-Apr-15 05:58N 17°07' W 061°51'0 0.0
2018-Apr-15 05:29N 17°07' W 061°51'0 0.0
2018-Apr-15 04:59N 17°07' W 061°51'0 0.0
2018-Apr-15 04:29N 17°07' W 061°51'0 0.0
2018-Apr-15 04:00N 17°07' W 061°51'0 0.0
2018-Apr-15 03:30N 17°07' W 061°51'0 0.0
2018-Apr-15 03:00N 17°07' W 061°51'0 0.0
2018-Apr-15 02:31N 17°07' W 061°51'0 0.0
2018-Apr-15 01:58N 17°07' W 061°51'0 0.0
2018-Apr-15 01:28N 17°07' W 061°51'0 0.0
2018-Apr-15 00:59N 17°07' W 061°51'0 0.0
2018-Apr-15 00:29N 17°07' W 061°51'0 0.0
2018-Apr-14 23:59N 17°07' W 061°51'0 0.0
2018-Apr-14 23:30N 17°07' W 061°51'0 0.0
2018-Apr-14 23:00N 17°07' W 061°51'0 0.0
2018-Apr-14 22:30N 17°07' W 061°51'0 0.5
2018-Apr-14 22:00N 17°07' W 061°51'0 0.8
2018-Apr-14 21:28N 17°08' W 061°51'0 0.0
2018-Apr-14 20:58N 17°08' W 061°51'0 0.0
2018-Apr-14 20:29N 17°08' W 061°51'0 0.0
2018-Apr-14 19:59N 17°08' W 061°51'0 0.0
2018-Apr-14 19:29N 17°08' W 061°51'0 0.0
2018-Apr-14 19:00N 17°08' W 061°51'0 0.0
2018-Apr-14 18:30N 17°08' W 061°51'0 0.0
2018-Apr-14 18:00N 17°08' W 061°51'0 0.0
2018-Apr-14 17:28N 17°08' W 061°51'0 0.0
2018-Apr-14 16:58N 17°08' W 061°51'0 0.0
2018-Apr-14 16:25N 17°08' W 061°51'0 0.0
2018-Apr-14 15:59N 17°08' W 061°51'0 0.0
2018-Apr-14 15:29N 17°08' W 061°51'0 0.2
2018-Apr-14 14:59N 17°07' W 061°51'1 1.2
2018-Apr-14 14:29N 17°07' W 061°51'0 0.0
2018-Apr-14 13:57N 17°07' W 061°51'0 0.0
2018-Apr-14 13:30N 17°07' W 061°51'0 0.0
2018-Apr-14 13:00N 17°07' W 061°51'0 0.0
2018-Apr-14 12:28N 17°07' W 061°51'0 0.3
2018-Apr-14 11:58N 17°07' W 061°51'0 0.2
2018-Apr-14 11:28N 17°07' W 061°51'0 0.0
2018-Apr-14 10:56N 17°07' W 061°51'0 0.0
2018-Apr-14 10:29N 17°07' W 061°51'0 0.0
2018-Apr-14 09:59N 17°07' W 061°51'0 0.0
2018-Apr-14 09:30N 17°07' W 061°51'0 0.0
2018-Apr-14 09:00N 17°07' W 061°51'0 0.0
2018-Apr-14 08:30N 17°07' W 061°51'0 0.0
2018-Apr-14 07:58N 17°07' W 061°51'0 0.0
2018-Apr-14 07:28N 17°07' W 061°51'0 0.0
2018-Apr-14 06:58N 17°07' W 061°51'0 0.0
2018-Apr-14 06:29N 17°07' W 061°51'0 0.0
2018-Apr-14 05:59N 17°07' W 061°51'0 0.0
2018-Apr-14 05:29N 17°07' W 061°51'0 0.0
2018-Apr-14 05:00N 17°07' W 061°51'0 0.0
2018-Apr-14 04:30N 17°07' W 061°51'0 0.0
2018-Apr-14 04:00N 17°07' W 061°51'0 0.0
2018-Apr-14 03:28N 17°07' W 061°51'0 0.0
2018-Apr-14 02:58N 17°07' W 061°51'0 0.0
2018-Apr-14 02:28N 17°07' W 061°51'0 0.0
2018-Apr-14 01:59N 17°07' W 061°51'0 0.0
2018-Apr-14 01:29N 17°07' W 061°51'0 0.0
2018-Apr-14 00:59N 17°07' W 061°51'0 0.0
2018-Apr-14 00:30N 17°07' W 061°51'0 0.0
2018-Apr-14 00:00N 17°07' W 061°51'0 0.0
2018-Apr-13 23:30N 17°07' W 061°51'0 0.0
2018-Apr-13 22:58N 17°07' W 061°51'0 0.0
2018-Apr-13 22:28N 17°07' W 061°51'0 0.0
2018-Apr-13 21:58N 17°07' W 061°51'0 0.0
2018-Apr-13 21:29N 17°07' W 061°51'0 0.0
2018-Apr-13 20:59N 17°07' W 061°51'0 0.0
2018-Apr-13 20:29N 17°07' W 061°51'0 0.0
2018-Apr-13 20:00N 17°07' W 061°51'0 0.0
2018-Apr-13 19:30N 17°07' W 061°51'0 0.0
2018-Apr-13 18:57N 17°07' W 061°51'0 0.0
2018-Apr-13 18:28N 17°07' W 061°51'0 0.0
2018-Apr-13 17:58N 17°07' W 061°51'0 0.0
2018-Apr-13 17:28N 17°07' W 061°51'0 0.0
2018-Apr-13 16:59N 17°07' W 061°51'0 0.0
2018-Apr-13 16:29N 17°07' W 061°51'0 0.0
2018-Apr-13 15:59N 17°07' W 061°51'0 0.0
2018-Apr-13 15:30N 17°07' W 061°51'0 0.0
2018-Apr-13 15:00N 17°07' W 061°51'1 1.3
2018-Apr-13 14:30N 17°08' W 061°51'0 0.0
2018-Apr-13 14:00N 17°08' W 061°51'0 0.0
2018-Apr-13 13:30N 17°08' W 061°51'0 0.0
2018-Apr-13 12:58N 17°08' W 061°51'0 0.0
2018-Apr-13 12:28N 17°08' W 061°51'0 0.0
2018-Apr-13 11:58N 17°08' W 061°51'0 0.0
2018-Apr-13 11:29N 17°08' W 061°51'0 0.0
2018-Apr-13 10:59N 17°08' W 061°51'0 0.0
2018-Apr-13 10:26N 17°08' W 061°51'0 0.0
2018-Apr-13 10:00N 17°08' W 061°51'0 0.0
2018-Apr-13 09:30N 17°08' W 061°51'0 0.0
2018-Apr-13 08:57N 17°08' W 061°51'0 0.0
2018-Apr-13 08:28N 17°08' W 061°51'0 0.0
2018-Apr-13 07:58N 17°08' W 061°51'0 0.0
2018-Apr-13 07:28N 17°08' W 061°51'0 0.0
2018-Apr-13 06:59N 17°08' W 061°51'0 0.0
2018-Apr-13 06:29N 17°08' W 061°51'0 0.0
2018-Apr-13 05:59N 17°08' W 061°51'0 0.0
2018-Apr-13 05:30N 17°08' W 061°51'0 0.0
2018-Apr-13 05:00N 17°08' W 061°51'0 0.0
2018-Apr-13 04:30N 17°08' W 061°51'0 0.0
2018-Apr-13 03:58N 17°08' W 061°51'0 0.0
2018-Apr-13 03:28N 17°08' W 061°51'0 0.0
2018-Apr-13 02:58N 17°08' W 061°51'0 0.0
2018-Apr-13 02:29N 17°08' W 061°51'0 0.0
2018-Apr-13 01:59N 17°08' W 061°51'0 0.0
2018-Apr-13 01:29N 17°08' W 061°51'0 0.0
2018-Apr-13 01:00N 17°08' W 061°51'0 0.0
2018-Apr-13 00:30N 17°08' W 061°51'0 0.0
2018-Apr-13 00:00N 17°08' W 061°51'0 0.0
2018-Apr-12 23:28N 17°08' W 061°51'0 0.0
2018-Apr-12 22:58N 17°08' W 061°51'0 0.0
2018-Apr-12 22:28N 17°08' W 061°51'0 0.0
2018-Apr-12 21:59N 17°08' W 061°51'0 0.0
2018-Apr-12 21:29N 17°08' W 061°51'0 0.0
2018-Apr-12 20:59N 17°08' W 061°51'0 0.0
2018-Apr-12 20:30N 17°08' W 061°51'0 0.1
2018-Apr-12 20:00N 17°07' W 061°51'1 1.1
2018-Apr-12 19:26N 17°07' W 061°51'0 0.0
2018-Apr-12 18:57N 17°07' W 061°51'0 0.0
2018-Apr-12 18:30N 17°07' W 061°51'0 0.0
2018-Apr-12 18:00N 17°07' W 061°51'0 0.0
2018-Apr-12 17:30N 17°07' W 061°51'0 0.0
2018-Apr-12 16:58N 17°07' W 061°51'0 0.0
2018-Apr-12 16:28N 17°07' W 061°51'0 0.0
2018-Apr-12 15:59N 17°07' W 061°51'0 0.0
2018-Apr-12 15:29N 17°07' W 061°51'0 0.0
2018-Apr-12 14:56N 17°07' W 061°51'0 0.0
2018-Apr-12 14:30N 17°07' W 061°51'0 0.0
2018-Apr-12 14:00N 17°07' W 061°51'0 0.0
2018-Apr-12 13:30N 17°07' W 061°51'0 0.0
2018-Apr-12 13:00N 17°07' W 061°51'0 0.0
2018-Apr-12 12:25N 17°07' W 061°51'1 1.5
2018-Apr-12 11:58N 17°08' W 061°51'0 0.0
2018-Apr-12 11:29N 17°08' W 061°51'0 0.0
2018-Apr-12 10:56N 17°08' W 061°51'0 0.0
2018-Apr-12 10:29N 17°08' W 061°51'0 0.0
2018-Apr-12 10:00N 17°08' W 061°51'0 0.0
2018-Apr-12 09:30N 17°08' W 061°51'0 0.0
2018-Apr-12 09:00N 17°08' W 061°51'0 0.0
2018-Apr-12 08:28N 17°08' W 061°51'0 0.0
2018-Apr-12 07:58N 17°08' W 061°51'0 0.0
2018-Apr-12 07:28N 17°08' W 061°51'0 0.0
2018-Apr-12 06:59N 17°08' W 061°51'0 0.0
2018-Apr-12 06:29N 17°08' W 061°51'0 0.0
2018-Apr-12 05:59N 17°08' W 061°51'0 0.0
2018-Apr-12 05:30N 17°08' W 061°51'0 0.0
2018-Apr-12 05:00N 17°08' W 061°51'0 0.0
2018-Apr-12 04:30N 17°08' W 061°51'0 0.0
2018-Apr-12 03:58N 17°08' W 061°51'0 0.0
2018-Apr-12 03:22N 17°08' W 061°51'0 0.0
2018-Apr-12 02:59N 17°08' W 061°51'0 0.0
2018-Apr-12 02:29N 17°08' W 061°51'0 0.0
2018-Apr-12 01:59N 17°08' W 061°51'0 0.0
2018-Apr-12 01:27N 17°08' W 061°51'0 0.0
2018-Apr-12 01:00N 17°08' W 061°51'  
Track history (hours):
 
Tides and Currents Weather Stations Pressure Air Temp Water Temp Dewpoint Dewpoint Depression Visibility Wind Speed Wind Dir Waves Ship Positions

Choptank

Owner: Vane Line Bunkering, Philadelphia, PA. More information available from US FCC via Universal Licensing System and Coast Guard Vessel Documentation Center.

Last reported at 2018-Apr-22 00:50 UTC. Time now 2018-Apr-26 11:39 UTC.
Position N 17°48' W 063°27'.

Length 33 m; draft 4.1 m.

Type: Tow > 200 m length. MMSI: 367147860.

Date/timePositionNaut miles runAvg speedWind from/ knotsBaromVisibWave heightAir tempDewpointWater temp
2018-Apr-22 00:50N 17°48' W 063°27'2 6.8
2018-Apr-22 00:30N 17°47' W 063°25'3 6.8
2018-Apr-22 00:00N 17°45' W 063°21'4 6.2
2018-Apr-21 23:22N 17°44' W 063°18'5 6.3
2018-Apr-21 22:38N 17°42' W 063°13'2 6.4
2018-Apr-21 22:22N 17°41' W 063°12'2 6.6
2018-Apr-21 22:00N 17°40' W 063°09'4 6.9
2018-Apr-21 21:27N 17°39' W 063°06'43 7.1
2018-Apr-21 15:22N 17°21' W 062°24'3 8.0
2018-Apr-21 15:00N 17°20' W 062°21'4 7.8
2018-Apr-21 14:30N 17°18' W 062°18'4 7.9
2018-Apr-21 14:00N 17°17' W 062°14'4 8.0
2018-Apr-21 13:30N 17°15' W 062°10'4 8.0
2018-Apr-21 13:00N 17°14' W 062°06'4 7.8
2018-Apr-21 12:30N 17°12' W 062°02'4 7.8
2018-Apr-21 12:00N 17°10' W 061°59'4 7.8
2018-Apr-21 11:30N 17°09' W 061°55'2 4.4
2018-Apr-21 11:00N 17°08' W 061°53'1 2.7
2018-Apr-21 10:30N 17°08' W 061°51'0 0.0
2018-Apr-21 10:01N 17°08' W 061°51'0 0.0
2018-Apr-21 09:28N 17°08' W 061°51'0 0.0
2018-Apr-21 08:58N 17°08' W 061°51'0 0.0
2018-Apr-21 08:29N 17°08' W 061°51'0 0.0
2018-Apr-21 07:59N 17°08' W 061°51'0 0.0
2018-Apr-21 07:29N 17°08' W 061°51'0 0.0
2018-Apr-21 07:00N 17°08' W 061°51'0 0.0
2018-Apr-21 06:30N 17°08' W 061°51'0 0.0
2018-Apr-21 06:00N 17°08' W 061°51'0 0.0
2018-Apr-21 05:28N 17°08' W 061°51'0 0.0
2018-Apr-21 04:58N 17°08' W 061°51'0 0.0
2018-Apr-21 04:28N 17°08' W 061°51'0 0.0
2018-Apr-21 03:59N 17°08' W 061°51'0 0.0
2018-Apr-21 03:29N 17°08' W 061°51'0 0.0
2018-Apr-21 02:59N 17°08' W 061°51'0 0.0
2018-Apr-21 02:30N 17°08' W 061°51'0 0.0
2018-Apr-21 02:00N 17°08' W 061°51'0 0.0
2018-Apr-21 01:30N 17°08' W 061°51'0 0.0
2018-Apr-21 00:58N 17°08' W 061°51'0 0.0
2018-Apr-21 00:28N 17°08' W 061°51'0 0.0
2018-Apr-20 23:58N 17°08' W 061°51'0 0.0
2018-Apr-20 23:29N 17°08' W 061°51'0 0.0
2018-Apr-20 22:59N 17°08' W 061°51'0 0.0
2018-Apr-20 22:29N 17°08' W 061°51'0 0.0
2018-Apr-20 21:57N 17°08' W 061°51'0 0.1
2018-Apr-20 21:30N 17°08' W 061°51'0 0.0
2018-Apr-20 21:00N 17°08' W 061°51'0 0.0
2018-Apr-20 20:28N 17°08' W 061°51'0 0.0
2018-Apr-20 19:58N 17°08' W 061°51'0 0.0
2018-Apr-20 19:28N 17°08' W 061°51'0 0.0
2018-Apr-20 18:59N 17°08' W 061°51'0 0.0
2018-Apr-20 18:29N 17°08' W 061°51'0 0.0
2018-Apr-20 17:59N 17°08' W 061°51'0 0.0
2018-Apr-20 17:30N 17°08' W 061°51'0 0.0
2018-Apr-20 17:00N 17°08' W 061°51'0 0.0
2018-Apr-20 16:30N 17°08' W 061°51'0 0.0
2018-Apr-20 15:58N 17°08' W 061°51'0 0.0
2018-Apr-20 15:28N 17°08' W 061°51'0 0.0
2018-Apr-20 14:58N 17°08' W 061°51'0 0.0
2018-Apr-20 14:29N 17°08' W 061°51'0 0.0
2018-Apr-20 13:59N 17°08' W 061°51'0 0.0
2018-Apr-20 13:29N 17°08' W 061°51'0 0.0
2018-Apr-20 12:57N 17°08' W 061°51'0 0.0
2018-Apr-20 12:30N 17°08' W 061°51'0 0.0
2018-Apr-20 12:00N 17°08' W 061°51'0 0.0
2018-Apr-20 11:28N 17°08' W 061°51'0 0.0
2018-Apr-20 10:58N 17°08' W 061°51'0 0.0
2018-Apr-20 10:28N 17°08' W 061°51'0 0.0
2018-Apr-20 09:56N 17°08' W 061°51'0 0.0
2018-Apr-20 09:29N 17°08' W 061°51'0 0.0
2018-Apr-20 08:59N 17°08' W 061°51'0 0.0
2018-Apr-20 08:30N 17°08' W 061°51'0 0.0
2018-Apr-20 08:00N 17°08' W 061°51'0 0.0
2018-Apr-20 07:30N 17°08' W 061°51'0 0.0
2018-Apr-20 06:58N 17°08' W 061°51'0 0.0
2018-Apr-20 06:28N 17°08' W 061°51'0 0.0
2018-Apr-20 05:58N 17°08' W 061°51'0 0.0
2018-Apr-20 05:29N 17°08' W 061°51'0 0.0
2018-Apr-20 04:59N 17°08' W 061°51'0 0.0
2018-Apr-20 04:29N 17°08' W 061°51'0 0.0
2018-Apr-20 04:00N 17°08' W 061°51'0 0.0
2018-Apr-20 03:30N 17°08' W 061°51'0 0.0
2018-Apr-20 03:00N 17°08' W 061°51'0 0.0
2018-Apr-20 02:28N 17°08' W 061°51'0 0.0
2018-Apr-20 01:58N 17°08' W 061°51'0 0.0
2018-Apr-20 01:28N 17°08' W 061°51'0 0.0
2018-Apr-20 00:59N 17°08' W 061°51'0 0.0
2018-Apr-20 00:29N 17°08' W 061°51'0 0.0
2018-Apr-19 23:59N 17°08' W 061°51'0 0.0
2018-Apr-19 23:30N 17°08' W 061°51'0 0.0
2018-Apr-19 23:00N 17°08' W 061°51'0 0.0
2018-Apr-19 22:30N 17°08' W 061°51'0 0.5
2018-Apr-19 22:00N 17°07' W 061°51'0 0.5
2018-Apr-19 21:28N 17°08' W 061°51'0 0.0
2018-Apr-19 20:59N 17°08' W 061°51'0 0.0
2018-Apr-19 20:29N 17°08' W 061°51'0 0.4
2018-Apr-19 19:58N 17°07' W 061°51'0 0.0
2018-Apr-19 19:29N 17°07' W 061°51'0 0.0
2018-Apr-19 18:59N 17°07' W 061°51'0 0.0
2018-Apr-19 18:29N 17°07' W 061°51'0 0.0
2018-Apr-19 18:00N 17°07' W 061°51'0 0.0
2018-Apr-19 17:30N 17°07' W 061°51'0 0.0
2018-Apr-19 17:00N 17°07' W 061°51'0 0.0
2018-Apr-19 16:28N 17°07' W 061°51'0 0.0
2018-Apr-19 15:58N 17°07' W 061°51'0 0.0
2018-Apr-19 15:28N 17°07' W 061°51'0 0.0
2018-Apr-19 15:00N 17°07' W 061°51'0 0.4
2018-Apr-19 14:30N 17°08' W 061°51'0 0.0
2018-Apr-19 13:55N 17°08' W 061°51'0 0.0
2018-Apr-19 13:28N 17°08' W 061°51'0 0.0
2018-Apr-19 12:58N 17°08' W 061°51'0 0.0
2018-Apr-19 12:29N 17°08' W 061°51'0 0.0
2018-Apr-19 11:59N 17°08' W 061°51'0 0.0
2018-Apr-19 11:30N 17°08' W 061°51'0 0.0
2018-Apr-19 11:00N 17°08' W 061°51'0 0.0
2018-Apr-19 10:27N 17°08' W 061°51'0 0.0
2018-Apr-19 09:58N 17°08' W 061°51'0 0.0
2018-Apr-19 09:28N 17°08' W 061°51'0 0.0
2018-Apr-19 08:58N 17°08' W 061°51'0 0.0
2018-Apr-19 08:29N 17°08' W 061°51'0 0.0
2018-Apr-19 07:59N 17°08' W 061°51'0 0.0
2018-Apr-19 07:29N 17°08' W 061°51'0 0.0
2018-Apr-19 07:00N 17°08' W 061°51'0 0.0
2018-Apr-19 06:30N 17°08' W 061°51'0 0.0
2018-Apr-19 06:00N 17°08' W 061°51'0 0.0
2018-Apr-19 05:28N 17°08' W 061°51'0 0.0
2018-Apr-19 04:58N 17°08' W 061°51'0 0.0
2018-Apr-19 04:28N 17°08' W 061°51'0 0.0
2018-Apr-19 03:59N 17°08' W 061°51'0 0.0
2018-Apr-19 03:29N 17°08' W 061°51'0 0.0
2018-Apr-19 02:59N 17°08' W 061°51'0 0.0
2018-Apr-19 02:30N 17°08' W 061°51'0 0.0
2018-Apr-19 02:00N 17°08' W 061°51'0 0.0
2018-Apr-19 01:30N 17°08' W 061°51'0 0.0
2018-Apr-19 00:58N 17°08' W 061°51'0 0.0
2018-Apr-19 00:28N 17°08' W 061°51'0 0.0
2018-Apr-18 23:58N 17°08' W 061°51'0 0.0
2018-Apr-18 23:29N 17°08' W 061°51'0 0.0
2018-Apr-18 22:59N 17°08' W 061°51'0 0.0
2018-Apr-18 22:29N 17°08' W 061°51'0 0.0
2018-Apr-18 22:00N 17°08' W 061°51'0 0.0
2018-Apr-18 21:30N 17°08' W 061°51'0 0.0
2018-Apr-18 21:00N 17°08' W 061°51'0 0.0
2018-Apr-18 20:28N 17°08' W 061°51'0 0.0
2018-Apr-18 19:58N 17°08' W 061°51'0 0.0
2018-Apr-18 19:28N 17°08' W 061°51'0 0.0
2018-Apr-18 18:59N 17°08' W 061°51'0 0.0
2018-Apr-18 18:29N 17°08' W 061°51'0 0.0
2018-Apr-18 17:59N 17°08' W 061°51'0 0.0
2018-Apr-18 17:30N 17°08' W 061°51'0 0.0
2018-Apr-18 17:00N 17°08' W 061°51'0 0.0
2018-Apr-18 16:30N 17°08' W 061°51'0 0.0
2018-Apr-18 15:58N 17°08' W 061°51'0 0.0
2018-Apr-18 15:28N 17°08' W 061°51'0 0.0
2018-Apr-18 14:58N 17°08' W 061°51'0 0.0
2018-Apr-18 14:29N 17°08' W 061°51'0 0.0
2018-Apr-18 13:59N 17°08' W 061°51'0 0.0
2018-Apr-18 13:29N 17°08' W 061°51'0 0.0
2018-Apr-18 13:00N 17°08' W 061°51'0 0.0
2018-Apr-18 12:30N 17°08' W 061°51'0 0.0
2018-Apr-18 12:00N 17°08' W 061°51'0 0.0
2018-Apr-18 11:28N 17°08' W 061°51'0 0.0
2018-Apr-18 10:58N 17°08' W 061°51'0 0.0
2018-Apr-18 10:25N 17°08' W 061°51'0 0.0
2018-Apr-18 09:59N 17°08' W 061°51'0 0.0
2018-Apr-18 09:29N 17°08' W 061°51'0 0.0
2018-Apr-18 08:59N 17°08' W 061°51'0 0.0
2018-Apr-18 08:30N 17°08' W 061°51'0 0.0
2018-Apr-18 08:00N 17°08' W 061°51'0 0.0
2018-Apr-18 07:30N 17°08' W 061°51'0 0.0
2018-Apr-18 06:58N 17°08' W 061°51'0 0.0
2018-Apr-18 06:28N 17°08' W 061°51'0 0.0
2018-Apr-18 05:58N 17°08' W 061°51'0 0.0
2018-Apr-18 05:29N 17°08' W 061°51'0 0.0
2018-Apr-18 04:56N 17°08' W 061°51'0 0.0
2018-Apr-18 04:29N 17°08' W 061°51'0 0.0
2018-Apr-18 04:00N 17°08' W 061°51'0 0.0
2018-Apr-18 03:30N 17°08' W 061°51'0 0.0
2018-Apr-18 03:00N 17°08' W 061°51'0 0.0
2018-Apr-18 02:28N 17°08' W 061°51'0 0.0
2018-Apr-18 01:58N 17°08' W 061°51'0 0.0
2018-Apr-18 01:28N 17°08' W 061°51'0 0.0
2018-Apr-18 00:56N 17°08' W 061°51'0 0.0
2018-Apr-18 00:29N 17°08' W 061°51'0 0.0
2018-Apr-17 23:59N 17°08' W 061°51'0 0.0
2018-Apr-17 23:27N 17°08' W 061°51'0 0.0
2018-Apr-17 23:00N 17°08' W 061°51'0 0.0
2018-Apr-17 22:27N 17°08' W 061°51'0 0.0
2018-Apr-17 21:58N 17°08' W 061°51'0 0.0
2018-Apr-17 21:28N 17°08' W 061°51'0 0.0
2018-Apr-17 20:58N 17°08' W 061°51'0 0.0
2018-Apr-17 20:29N 17°08' W 061°51'0 0.0
2018-Apr-17 19:59N 17°08' W 061°51'0 0.0
2018-Apr-17 19:29N 17°08' W 061°51'0 0.0
2018-Apr-17 19:00N 17°08' W 061°51'0 0.0
2018-Apr-17 18:30N 17°08' W 061°51'0 0.0
2018-Apr-17 18:00N 17°08' W 061°51'0 0.0
2018-Apr-17 17:28N 17°08' W 061°51'0 0.0
2018-Apr-17 16:58N 17°08' W 061°51'0 0.2
2018-Apr-17 16:31N 17°08' W 061°52'1 2.8
2018-Apr-17 15:59N 17°08' W 061°53'0 0.0
2018-Apr-17 15:29N 17°08' W 061°53'0 0.0
2018-Apr-17 14:59N 17°08' W 061°53'0 0.1
2018-Apr-17 14:30N 17°08' W 061°53'0 0.2
2018-Apr-17 14:00N 17°08' W 061°53'0 0.0
2018-Apr-17 13:30N 17°08' W 061°53'0 0.0
2018-Apr-17 12:58N 17°08' W 061°53'1 2.9
2018-Apr-17 12:30N 17°08' W 061°52'0 0.5
2018-Apr-17 11:58N 17°08' W 061°51'0 0.1
2018-Apr-17 11:30N 17°08' W 061°51'0 0.0
2018-Apr-17 11:00N 17°08' W 061°51'0 0.0
2018-Apr-17 10:28N 17°08' W 061°51'0 0.0
2018-Apr-17 09:58N 17°08' W 061°51'0 0.0
2018-Apr-17 09:28N 17°08' W 061°51'0 0.0
2018-Apr-17 08:59N 17°07' W 061°51'0 0.0
2018-Apr-17 08:29N 17°07' W 061°51'0 0.0
2018-Apr-17 07:59N 17°08' W 061°51'0 0.0
2018-Apr-17 07:30N 17°08' W 061°51'0 0.0
2018-Apr-17 07:00N 17°08' W 061°51'0 0.0
2018-Apr-17 06:30N 17°08' W 061°51'0 0.0
2018-Apr-17 05:58N 17°08' W 061°51'0 0.0
2018-Apr-17 05:28N 17°07' W 061°51'0 0.0
2018-Apr-17 04:58N 17°08' W 061°51'0 0.0
2018-Apr-17 04:26N 17°08' W 061°51'0 0.0
2018-Apr-17 03:59N 17°08' W 061°51'0 0.0
2018-Apr-17 03:29N 17°08' W 061°51'0 0.0
2018-Apr-17 02:57N 17°08' W 061°51'0 0.0
2018-Apr-17 02:30N 17°08' W 061°51'0 0.0
2018-Apr-17 01:57N 17°08' W 061°51'0 0.0
2018-Apr-17 01:28N 17°08' W 061°51'0 0.0
2018-Apr-17 00:58N 17°08' W 061°51'0 0.3
2018-Apr-17 00:30N 17°07' W 061°51'0 0.2
2018-Apr-16 23:59N 17°08' W 061°51'0 0.0
2018-Apr-16 23:29N 17°08' W 061°51'0 0.0
2018-Apr-16 22:59N 17°08' W 061°51'0 0.0
2018-Apr-16 22:30N 17°08' W 061°51'0 0.0
2018-Apr-16 22:00N 17°08' W 061°51'0 0.0
2018-Apr-16 21:30N 17°08' W 061°51'0 0.0
2018-Apr-16 20:58N 17°08' W 061°51'0 0.0
2018-Apr-16 20:28N 17°08' W 061°51'0 0.0
2018-Apr-16 19:58N 17°08' W 061°51'0 0.0
2018-Apr-16 19:29N 17°08' W 061°51'0 0.0
2018-Apr-16 18:59N 17°08' W 061°51'0 0.0
2018-Apr-16 18:29N 17°08' W 061°51'0 0.0
2018-Apr-16 18:00N 17°08' W 061°51'0 0.0
2018-Apr-16 17:30N 17°08' W 061°51'0 0.0
2018-Apr-16 17:00N 17°08' W 061°51'0 0.0
2018-Apr-16 16:28N 17°08' W 061°51'0 0.0
2018-Apr-16 15:55N 17°08' W 061°51'1 1.4
2018-Apr-16 15:30N 17°07' W 061°51'0 0.1
2018-Apr-16 15:00N 17°07' W 061°51'0 0.0
2018-Apr-16 14:30N 17°07' W 061°51'0 0.0
2018-Apr-16 13:58N 17°07' W 061°51'0 0.0
2018-Apr-16 13:28N 17°07' W 061°51'0 0.0
2018-Apr-16 12:58N 17°07' W 061°51'0 0.0
2018-Apr-16 12:29N 17°07' W 061°51'0 0.0
2018-Apr-16 11:59N 17°07' W 061°51'0 0.0
2018-Apr-16 11:29N 17°07' W 061°51'0 0.0
2018-Apr-16 11:00N 17°07' W 061°51'0 0.0
2018-Apr-16 10:30N 17°07' W 061°51'0 0.0
2018-Apr-16 10:00N 17°07' W 061°51'0 0.0
2018-Apr-16 09:28N 17°07' W 061°51'0 0.0
2018-Apr-16 08:58N 17°07' W 061°51'0 0.0
2018-Apr-16 08:28N 17°07' W 061°51'0 0.0
2018-Apr-16 07:59N 17°07' W 061°51'0 0.0
2018-Apr-16 07:29N 17°07' W 061°51'0 0.0
2018-Apr-16 06:59N 17°07' W 061°51'0 0.0
2018-Apr-16 06:30N 17°07' W 061°51'0 0.0
2018-Apr-16 06:00N 17°07' W 061°51'0 0.0
2018-Apr-16 05:30N 17°07' W 061°51'0 0.0
2018-Apr-16 04:58N 17°07' W 061°51'0 0.0
2018-Apr-16 04:28N 17°07' W 061°51'0 0.0
2018-Apr-16 03:58N 17°07' W 061°51'0 0.0
2018-Apr-16 03:29N 17°07' W 061°51'0 0.0
2018-Apr-16 02:59N 17°07' W 061°51'0 0.0
2018-Apr-16 02:29N 17°07' W 061°51'0 0.0
2018-Apr-16 01:57N 17°07' W 061°51'0 0.0
2018-Apr-16 01:30N 17°07' W 061°51'0 0.0
2018-Apr-16 01:00N 17°07' W 061°51'0 0.0
2018-Apr-16 00:28N 17°07' W 061°51'0 0.0
2018-Apr-15 23:58N 17°07' W 061°51'0 0.0
2018-Apr-15 23:28N 17°07' W 061°51'0 0.0
2018-Apr-15 22:59N 17°07' W 061°51'0 0.0
2018-Apr-15 22:29N 17°07' W 061°51'0 0.0
2018-Apr-15 21:59N 17°07' W 061°51'0 0.0
2018-Apr-15 21:30N 17°07' W 061°51'0 0.0
2018-Apr-15 21:00N 17°07' W 061°51'0 0.0
2018-Apr-15 20:30N 17°07' W 061°51'0 0.0
2018-Apr-15 19:58N 17°07' W 061°51'0 0.0
2018-Apr-15 19:28N 17°07' W 061°51'0 0.0
2018-Apr-15 18:55N 17°07' W 061°51'0 0.0
2018-Apr-15 18:29N 17°07' W 061°51'0 0.0
2018-Apr-15 17:59N 17°07' W 061°51'0 0.0
2018-Apr-15 17:29N 17°07' W 061°51'0 0.0
2018-Apr-15 17:00N 17°07' W 061°51'0 0.0
2018-Apr-15 16:30N 17°07' W 061°51'0 0.0
2018-Apr-15 15:57N 17°07' W 061°51'0 0.0
2018-Apr-15 15:28N 17°07' W 061°51'0 0.0
2018-Apr-15 14:58N 17°07' W 061°51'0 0.0
2018-Apr-15 14:28N 17°07' W 061°51'0 0.0
2018-Apr-15 13:59N 17°07' W 061°51'0 0.0
2018-Apr-15 13:29N 17°07' W 061°51'0 0.0
2018-Apr-15 12:59N 17°07' W 061°51'0 0.0
2018-Apr-15 12:30N 17°07' W 061°51'0 0.0
2018-Apr-15 12:00N 17°07' W 061°51'0 0.0
2018-Apr-15 11:30N 17°07' W 061°51'0 0.0
2018-Apr-15 10:58N 17°07' W 061°51'0 0.0
2018-Apr-15 10:28N 17°07' W 061°51'0 0.0
2018-Apr-15 09:58N 17°07' W 061°51'0 0.0
2018-Apr-15 09:29N 17°07' W 061°51'0 0.0
2018-Apr-15 08:59N 17°07' W 061°51'0 0.0
2018-Apr-15 08:29N 17°07' W 061°51'0 0.0
2018-Apr-15 08:00N 17°07' W 061°51'0 0.0
2018-Apr-15 07:30N 17°07' W 061°51'0 0.0
2018-Apr-15 07:00N 17°07' W 061°51'0 0.0
2018-Apr-15 06:28N 17°07' W 061°51'0 0.0
2018-Apr-15 05:58N 17°07' W 061°51'0 0.0
2018-Apr-15 05:29N 17°07' W 061°51'0 0.0
2018-Apr-15 04:59N 17°07' W 061°51'0 0.0
2018-Apr-15 04:29N 17°07' W 061°51'0 0.0
2018-Apr-15 04:00N 17°07' W 061°51'0 0.0
2018-Apr-15 03:30N 17°07' W 061°51'0 0.0
2018-Apr-15 03:00N 17°07' W 061°51'0 0.0
2018-Apr-15 02:31N 17°07' W 061°51'0 0.0
2018-Apr-15 01:58N 17°07' W 061°51'0 0.0
2018-Apr-15 01:28N 17°07' W 061°51'0 0.0
2018-Apr-15 00:59N 17°07' W 061°51'0 0.0
2018-Apr-15 00:29N 17°07' W 061°51'0 0.0
2018-Apr-14 23:59N 17°07' W 061°51'0 0.0
2018-Apr-14 23:30N 17°07' W 061°51'0 0.0
2018-Apr-14 23:00N 17°07' W 061°51'0 0.0
2018-Apr-14 22:30N 17°07' W 061°51'0 0.5
2018-Apr-14 22:00N 17°07' W 061°51'0 0.8
2018-Apr-14 21:28N 17°08' W 061°51'0 0.0
2018-Apr-14 20:58N 17°08' W 061°51'0 0.0
2018-Apr-14 20:29N 17°08' W 061°51'0 0.0
2018-Apr-14 19:59N 17°08' W 061°51'0 0.0
2018-Apr-14 19:29N 17°08' W 061°51'0 0.0
2018-Apr-14 19:00N 17°08' W 061°51'0 0.0
2018-Apr-14 18:30N 17°08' W 061°51'0 0.0
2018-Apr-14 18:00N 17°08' W 061°51'0 0.0
2018-Apr-14 17:28N 17°08' W 061°51'0 0.0
2018-Apr-14 16:58N 17°08' W 061°51'0 0.0
2018-Apr-14 16:25N 17°08' W 061°51'0 0.0
2018-Apr-14 15:59N 17°08' W 061°51'0 0.0
2018-Apr-14 15:29N 17°08' W 061°51'0 0.2
2018-Apr-14 14:59N 17°07' W 061°51'1 1.2
2018-Apr-14 14:29N 17°07' W 061°51'0 0.0
2018-Apr-14 13:57N 17°07' W 061°51'0 0.0
2018-Apr-14 13:30N 17°07' W 061°51'0 0.0
2018-Apr-14 13:00N 17°07' W 061°51'0 0.0
2018-Apr-14 12:28N 17°07' W 061°51'0 0.3
2018-Apr-14 11:58N 17°07' W 061°51'0 0.2
2018-Apr-14 11:28N 17°07' W 061°51'0 0.0
2018-Apr-14 10:56N 17°07' W 061°51'0 0.0
2018-Apr-14 10:29N 17°07' W 061°51'0 0.0
2018-Apr-14 09:59N 17°07' W 061°51'0 0.0
2018-Apr-14 09:30N 17°07' W 061°51'0 0.0
2018-Apr-14 09:00N 17°07' W 061°51'0 0.0
2018-Apr-14 08:30N 17°07' W 061°51'0 0.0
2018-Apr-14 07:58N 17°07' W 061°51'0 0.0
2018-Apr-14 07:28N 17°07' W 061°51'0 0.0
2018-Apr-14 06:58N 17°07' W 061°51'0 0.0
2018-Apr-14 06:29N 17°07' W 061°51'0 0.0
2018-Apr-14 05:59N 17°07' W 061°51'0 0.0
2018-Apr-14 05:29N 17°07' W 061°51'0 0.0
2018-Apr-14 05:00N 17°07' W 061°51'0 0.0
2018-Apr-14 04:30N 17°07' W 061°51'0 0.0
2018-Apr-14 04:00N 17°07' W 061°51'0 0.0
2018-Apr-14 03:28N 17°07' W 061°51'0 0.0
2018-Apr-14 02:58N 17°07' W 061°51'0 0.0
2018-Apr-14 02:28N 17°07' W 061°51'0 0.0
2018-Apr-14 01:59N 17°07' W 061°51'0 0.0
2018-Apr-14 01:29N 17°07' W 061°51'0 0.0
2018-Apr-14 00:59N 17°07' W 061°51'0 0.0
2018-Apr-14 00:30N 17°07' W 061°51'0 0.0
2018-Apr-14 00:00N 17°07' W 061°51'0 0.0
2018-Apr-13 23:30N 17°07' W 061°51'0 0.0
2018-Apr-13 22:58N 17°07' W 061°51'0 0.0
2018-Apr-13 22:28N 17°07' W 061°51'0 0.0
2018-Apr-13 21:58N 17°07' W 061°51'0 0.0
2018-Apr-13 21:29N 17°07' W 061°51'0 0.0
2018-Apr-13 20:59N 17°07' W 061°51'0 0.0
2018-Apr-13 20:29N 17°07' W 061°51'0 0.0
2018-Apr-13 20:00N 17°07' W 061°51'0 0.0
2018-Apr-13 19:30N 17°07' W 061°51'0 0.0
2018-Apr-13 18:57N 17°07' W 061°51'0 0.0
2018-Apr-13 18:28N 17°07' W 061°51'0 0.0
2018-Apr-13 17:58N 17°07' W 061°51'0 0.0
2018-Apr-13 17:28N 17°07' W 061°51'0 0.0
2018-Apr-13 16:59N 17°07' W 061°51'0 0.0
2018-Apr-13 16:29N 17°07' W 061°51'0 0.0
2018-Apr-13 15:59N 17°07' W 061°51'0 0.0
2018-Apr-13 15:30N 17°07' W 061°51'0 0.0
2018-Apr-13 15:00N 17°07' W 061°51'1 1.3
2018-Apr-13 14:30N 17°08' W 061°51'0 0.0
2018-Apr-13 14:00N 17°08' W 061°51'0 0.0
2018-Apr-13 13:30N 17°08' W 061°51'0 0.0
2018-Apr-13 12:58N 17°08' W 061°51'0 0.0
2018-Apr-13 12:28N 17°08' W 061°51'0 0.0
2018-Apr-13 11:58N 17°08' W 061°51'0 0.0
2018-Apr-13 11:29N 17°08' W 061°51'0 0.0
2018-Apr-13 10:59N 17°08' W 061°51'0 0.0
2018-Apr-13 10:26N 17°08' W 061°51'0 0.0
2018-Apr-13 10:00N 17°08' W 061°51'0 0.0
2018-Apr-13 09:30N 17°08' W 061°51'0 0.0
2018-Apr-13 08:57N 17°08' W 061°51'0 0.0
2018-Apr-13 08:28N 17°08' W 061°51'0 0.0
2018-Apr-13 07:58N 17°08' W 061°51'0 0.0
2018-Apr-13 07:28N 17°08' W 061°51'0 0.0
2018-Apr-13 06:59N 17°08' W 061°51'0 0.0
2018-Apr-13 06:29N 17°08' W 061°51'0 0.0
2018-Apr-13 05:59N 17°08' W 061°51'0 0.0
2018-Apr-13 05:30N 17°08' W 061°51'0 0.0
2018-Apr-13 05:00N 17°08' W 061°51'0 0.0
2018-Apr-13 04:30N 17°08' W 061°51'0 0.0
2018-Apr-13 03:58N 17°08' W 061°51'0 0.0
2018-Apr-13 03:28N 17°08' W 061°51'0 0.0
2018-Apr-13 02:58N 17°08' W 061°51'0 0.0
2018-Apr-13 02:29N 17°08' W 061°51'0 0.0
2018-Apr-13 01:59N 17°08' W 061°51'0 0.0
2018-Apr-13 01:29N 17°08' W 061°51'0 0.0
2018-Apr-13 01:00N 17°08' W 061°51'0 0.0
2018-Apr-13 00:30N 17°08' W 061°51'0 0.0
2018-Apr-13 00:00N 17°08' W 061°51'0 0.0
2018-Apr-12 23:28N 17°08' W 061°51'0 0.0
2018-Apr-12 22:58N 17°08' W 061°51'0 0.0
2018-Apr-12 22:28N 17°08' W 061°51'0 0.0
2018-Apr-12 21:59N 17°08' W 061°51'0 0.0
2018-Apr-12 21:29N 17°08' W 061°51'0 0.0
2018-Apr-12 20:59N 17°08' W 061°51'0 0.0
2018-Apr-12 20:30N 17°08' W 061°51'0 0.1
2018-Apr-12 20:00N 17°07' W 061°51'1 1.1
2018-Apr-12 19:26N 17°07' W 061°51'0 0.0
2018-Apr-12 18:57N 17°07' W 061°51'0 0.0
2018-Apr-12 18:30N 17°07' W 061°51'0 0.0
2018-Apr-12 18:00N 17°07' W 061°51'0 0.0
2018-Apr-12 17:30N 17°07' W 061°51'0 0.0
2018-Apr-12 16:58N 17°07' W 061°51'0 0.0
2018-Apr-12 16:28N 17°07' W 061°51'0 0.0
2018-Apr-12 15:59N 17°07' W 061°51'0 0.0
2018-Apr-12 15:29N 17°07' W 061°51'0 0.0
2018-Apr-12 14:56N 17°07' W 061°51'0 0.0
2018-Apr-12 14:30N 17°07' W 061°51'0 0.0
2018-Apr-12 14:00N 17°07' W 061°51'0 0.0
2018-Apr-12 13:30N 17°07' W 061°51'0 0.0
2018-Apr-12 13:00N 17°07' W 061°51'0 0.0
2018-Apr-12 12:25N 17°07' W 061°51'1 1.5
2018-Apr-12 11:58N 17°08' W 061°51'0 0.0
2018-Apr-12 11:29N 17°08' W 061°51'0 0.0
2018-Apr-12 10:56N 17°08' W 061°51'0 0.0
2018-Apr-12 10:29N 17°08' W 061°51'0 0.0
2018-Apr-12 10:00N 17°08' W 061°51'0 0.0
2018-Apr-12 09:30N 17°08' W 061°51'0 0.0
2018-Apr-12 09:00N 17°08' W 061°51'0 0.0
2018-Apr-12 08:28N 17°08' W 061°51'0 0.0
2018-Apr-12 07:58N 17°08' W 061°51'0 0.0
2018-Apr-12 07:28N 17°08' W 061°51'0 0.0
2018-Apr-12 06:59N 17°08' W 061°51'0 0.0
2018-Apr-12 06:29N 17°08' W 061°51'0 0.0
2018-Apr-12 05:59N 17°08' W 061°51'0 0.0
2018-Apr-12 05:30N 17°08' W 061°51'0 0.0
2018-Apr-12 05:00N 17°08' W 061°51'0 0.0
2018-Apr-12 04:30N 17°08' W 061°51'0 0.0
2018-Apr-12 03:58N 17°08' W 061°51'0 0.0
2018-Apr-12 03:22N 17°08' W 061°51'0 0.0
2018-Apr-12 02:59N 17°08' W 061°51'0 0.0
2018-Apr-12 02:29N 17°08' W 061°51'0 0.0
2018-Apr-12 01:59N 17°08' W 061°51'0 0.0
2018-Apr-12 01:27N 17°08' W 061°51'0 0.0
2018-Apr-12 01:00N 17°08' W 061°51'  

Dump ship's entire track history